Time;durP1;ratioP1;P1;durP2;ratioP2;P2;SDS_P1;SDS_P2;PMS_P1;PMS_P2;Temp;Humidity;BMP_temperature;BMP_pressure;BME280_temperature;BME280_humidity;BME280_pressure;Samples;Min_cycle;Max_cycle;Signal;HPM_P1;HPM_P2
2022/07/28 00:02:04;;;;;;;6.07;1.90;;;16.20;29.30;;;;;;5050993;28;20446;-72
2022/07/28 00:04:34;;;;;;;4.88;2.00;;;16.20;29.60;;;;;;5050654;28;20377;-73
2022/07/28 00:07:00;;;;;;;5.90;1.90;;;16.20;29.20;;;;;;5050765;28;20471;-71
2022/07/28 00:09:26;;;;;;;7.40;2.20;;;16.20;28.90;;;;;;5050558;28;20392;-72
2022/07/28 00:11:51;;;;;;;5.05;2.13;;;16.20;28.50;;;;;;5050341;28;20381;-72
2022/07/28 00:14:17;;;;;;;4.10;1.90;;;16.20;28.20;;;;;;5050510;28;20449;-73
2022/07/28 00:16:43;;;;;;;5.83;1.67;;;16.20;27.70;;;;;;5050889;28;20903;-73
2022/07/28 00:19:08;;;;;;;7.05;2.13;;;16.20;27.60;;;;;;5050651;28;20385;-72
2022/07/28 00:21:34;;;;;;;4.30;1.80;;;16.20;27.70;;;;;;5050426;28;20419;-73
2022/07/28 00:23:59;;;;;;;4.43;1.90;;;16.20;27.60;;;;;;5050362;28;20386;-73
2022/07/28 00:26:25;;;;;;;3.30;1.70;;;16.20;27.90;;;;;;5050536;28;20440;-73
2022/07/28 00:28:50;;;;;;;3.47;1.37;;;16.20;27.70;;;;;;5050441;28;20442;-73
2022/07/28 00:31:16;;;;;;;6.20;1.83;;;16.20;27.40;;;;;;5050311;28;20377;-72
2022/07/28 00:33:42;;;;;;;5.78;1.80;;;16.10;28.10;;;;;;5050686;28;20388;-72
2022/07/28 00:36:08;;;;;;;2.20;1.55;;;16.10;27.90;;;;;;5050603;28;20795;-73
2022/07/28 00:38:35;;;;;;;5.90;2.00;;;16.10;28.10;;;;;;5050670;28;20393;-73
2022/07/28 00:41:10;;;;;;;12.02;2.15;;;16.10;27.70;;;;;;5050579;28;20385;-72
2022/07/28 00:43:56;;;;;;;8.70;1.73;;;16.10;27.80;;;;;;5050380;28;20389;-72
2022/07/28 00:46:22;;;;;;;4.40;1.63;;;16.10;27.60;;;;;;5050186;28;20800;-73
2022/07/28 00:48:50;;;;;;;4.47;1.60;;;16.10;27.70;;;;;;5050520;28;20475;-72
2022/07/28 00:51:19;;;;;;;4.30;1.70;;;16.10;27.80;;;;;;5050357;28;20416;-72
2022/07/28 00:53:45;;;;;;;5.90;1.90;;;16.10;27.80;;;;;;5050120;28;20389;-74
2022/07/28 00:56:11;;;;;;;4.55;1.48;;;16.10;27.70;;;;;;5035389;28;20419;-73
2022/07/28 00:58:37;;;;;;;4.90;1.60;;;16.20;27.20;;;;;;5053928;28;20797;-72
2022/07/28 01:01:08;;;;;;;3.83;1.70;;;16.20;28.00;;;;;;5053611;28;20862;-72
2022/07/28 01:03:37;;;;;;;3.42;1.70;;;16.10;27.80;;;;;;5053967;28;20394;-72
2022/07/28 01:06:06;;;;;;;2.70;1.40;;;16.10;27.90;;;;;;5053794;28;20389;-73
2022/07/28 01:08:43;;;;;;;4.47;1.73;;;16.10;27.80;;;;;;5053543;28;20386;-74
2022/07/28 01:11:33;;;;;;;7.85;2.10;;;16.10;28.20;;;;;;5053427;28;20464;-73
2022/07/28 01:14:09;;;;;;;5.13;1.85;;;16.00;28.10;;;;;;5053560;28;20377;-72
2022/07/28 01:16:43;;;;;;;4.60;1.33;;;16.00;27.80;;;;;;5053285;28;20385;-72
2022/07/28 01:19:39;;;;;;;5.57;1.90;;;16.00;28.10;;;;;;5053405;28;20421;-72
2022/07/28 01:22:09;;;;;;;3.43;1.40;;;15.90;28.30;;;;;;5053172;28;20381;-72
2022/07/28 01:24:46;;;;;;;5.18;1.40;;;15.90;28.50;;;;;;5053302;28;20386;-73
2022/07/28 01:27:36;;;;;;;4.00;1.80;;;15.90;28.80;;;;;;5053372;28;20416;-72
2022/07/28 01:30:21;;;;;;;3.00;1.40;;;15.80;29.00;;;;;;5053397;28;20385;-73
2022/07/28 01:32:53;;;;;;;4.97;1.50;;;15.70;29.40;;;;;;5052951;28;20867;-73
2022/07/28 01:35:25;;;;;;;4.63;1.80;;;15.70;29.80;;;;;;5053246;28;20470;-73
2022/07/28 01:37:56;;;;;;;4.13;1.70;;;15.60;30.20;;;;;;5053032;28;20399;-72
2022/07/28 01:40:26;;;;;;;6.03;1.70;;;15.50;30.50;;;;;;5052909;28;20858;-72
2022/07/28 01:42:57;;;;;;;8.00;2.20;;;15.50;30.80;;;;;;5052703;28;20754;-72
2022/07/28 01:45:23;;;;;;;5.50;1.70;;;15.40;31.20;;;;;;5052864;28;20460;-73
2022/07/28 01:47:51;;;;;;;8.73;1.63;;;15.40;31.70;;;;;;5052962;28;20401;-72
2022/07/28 01:50:21;;;;;;;6.55;1.80;;;15.30;32.00;;;;;;5053009;28;20473;-73
2022/07/28 01:52:48;;;;;;;5.65;1.90;;;15.20;32.40;;;;;;5038972;28;20412;-72
2022/07/28 01:55:17;;;;;;;3.53;1.80;;;15.10;33.30;;;;;;5056802;28;20452;-72
2022/07/28 01:57:44;;;;;;;4.45;1.80;;;15.00;33.70;;;;;;5052912;28;20389;-73
2022/07/28 02:00:12;;;;;;;5.00;1.80;;;15.10;33.70;;;;;;5052712;28;20389;-73
2022/07/28 02:02:39;;;;;;;3.05;1.80;;;15.00;33.70;;;;;;5052596;28;20809;-73
2022/07/28 02:05:07;;;;;;;5.15;1.40;;;15.00;34.20;;;;;;5035349;28;20447;-74
2022/07/28 02:07:34;;;;;;;6.33;1.93;;;14.90;34.50;;;;;;5052827;28;20408;-74
2022/07/28 02:10:01;;;;;;;6.22;1.73;;;14.90;34.30;;;;;;5053356;28;20394;-74
2022/07/28 02:12:28;;;;;;;6.85;2.08;;;14.90;34.70;;;;;;5052616;28;20381;-72
2022/07/28 02:14:55;;;;;;;6.72;2.20;;;14.80;35.40;;;;;;5052658;28;20742;-72
2022/07/28 02:17:30;;;;;;;4.28;2.00;;;14.80;35.70;;;;;;5052665;28;20878;-74
2022/07/28 02:19:56;;;;;;;8.35;1.90;;;14.80;35.10;;;;;;5052755;28;20392;-75
2022/07/28 02:22:25;;;;;;;5.20;1.83;;;14.90;35.20;;;;;;5051851;28;20731;-71
2022/07/28 02:24:53;;;;;;;8.95;2.10;;;14.90;35.00;;;;;;5052349;28;20447;-73
2022/07/28 02:27:23;;;;;;;3.58;2.10;;;14.90;35.20;;;;;;5034210;28;20405;-72
2022/07/28 02:29:56;;;;;;;2.72;1.92;;;14.90;35.00;;;;;;5052306;28;20405;-73
2022/07/28 02:32:31;;;;;;;3.22;1.90;;;14.90;35.30;;;;;;5051922;28;20400;-74
2022/07/28 02:35:03;;;;;;;4.50;2.05;;;14.80;35.50;;;;;;5052299;28;20388;-73
2022/07/28 02:37:34;;;;;;;6.90;2.30;;;14.80;35.80;;;;;;5051771;28;20460;-73
2022/07/28 02:40:02;;;;;;;3.42;1.63;;;14.80;36.00;;;;;;5052029;28;20687;-74
2022/07/28 02:42:32;;;;;;;4.18;1.85;;;14.80;36.10;;;;;;5051973;28;20431;-73
2022/07/28 02:45:00;;;;;;;6.40;2.38;;;14.70;36.50;;;;;;5051646;28;20400;-73
2022/07/28 02:47:30;;;;;;;3.17;1.67;;;14.70;36.40;;;;;;5051821;28;20401;-73
2022/07/28 02:49:59;;;;;;;7.78;2.30;;;14.70;36.70;;;;;;5054223;28;20898;-73
2022/07/28 02:52:25;;;;;;;4.85;1.98;;;14.60;37.30;;;;;;5054728;28;20385;-74
2022/07/28 02:54:52;;;;;;;5.70;1.90;;;14.50;37.90;;;;;;5054079;28;20390;-72
2022/07/28 02:57:18;;;;;;;7.50;1.80;;;14.60;37.60;;;;;;5055480;28;20393;-74
2022/07/28 02:59:45;;;;;;;5.63;1.83;;;14.50;38.00;;;;;;5055784;28;20716;-74
2022/07/28 03:02:12;;;;;;;2.75;1.92;;;14.50;38.30;;;;;;5055398;28;20608;-72
2022/07/28 03:07:32;;;;;;;6.70;2.13;;;14.30;39.90;;;;;;5052196;28;20407;-74
2022/07/28 03:09:58;;;;;;;5.80;1.98;;;14.20;40.90;;;;;;5051355;28;20435;-73
2022/07/28 03:12:25;;;;;;;7.82;2.20;;;14.20;41.50;;;;;;5051168;28;20890;-74
2022/07/28 03:14:51;;;;;;;7.33;2.27;;;14.30;40.90;;;;;;5051393;28;20400;-74
2022/07/28 03:17:18;;;;;;;5.25;2.05;;;14.30;40.70;;;;;;5050722;28;20385;-74
2022/07/28 03:19:43;;;;;;;3.40;1.75;;;14.20;40.90;;;;;;5051420;28;20767;-74
2022/07/28 03:22:10;;;;;;;10.07;2.50;;;14.00;42.90;;;;;;5052194;28;20589;-74
2022/07/28 03:24:38;;;;;;;5.45;2.70;;;13.90;44.70;;;;;;5054845;28;20392;-73
2022/07/28 03:27:41;;;;;;;4.45;2.00;;;13.90;44.50;;;;;;5051601;28;20794;-73
2022/07/28 03:30:15;;;;;;;4.80;2.00;;;13.90;44.30;;;;;;4970166;28;20459;-72
2022/07/28 03:32:46;;;;;;;9.00;2.50;;;13.90;45.70;;;;;;5039390;28;20385;-74
2022/07/28 03:35:13;;;;;;;4.63;2.50;;;13.70;48.10;;;;;;5051553;28;20464;-72
2022/07/28 03:37:56;;;;;;;6.63;2.67;;;13.70;48.60;;;;;;5050681;28;20393;-71
2022/07/28 03:40:28;;;;;;;5.57;2.30;;;13.60;49.30;;;;;;5050903;28;20385;-72
2022/07/28 03:42:55;;;;;;;7.15;2.13;;;13.50;50.20;;;;;;5050738;28;20407;-73
2022/07/28 03:45:21;;;;;;;3.95;2.00;;;13.60;50.60;;;;;;5051219;28;20393;-73
2022/07/28 03:47:56;;;;;;;7.55;2.40;;;13.70;49.40;;;;;;5050994;28;20774;-74
2022/07/28 03:50:23;;;;;;;5.55;2.50;;;13.70;48.70;;;;;;5050927;28;20798;-74
2022/07/28 03:52:49;;;;;;;4.07;1.80;;;13.70;49.40;;;;;;5050493;28;20885;-73
2022/07/28 03:55:16;;;;;;;5.05;2.38;;;13.70;48.90;;;;;;5050880;28;20405;-74
2022/07/28 03:57:41;;;;;;;5.53;2.22;;;13.60;49.30;;;;;;5050613;28;20911;-73
2022/07/28 04:00:07;;;;;;;6.43;2.40;;;13.70;49.70;;;;;;5050416;28;20482;-71
2022/07/28 04:02:33;;;;;;;6.20;2.53;;;13.70;49.50;;;;;;5050640;28;20433;-73
2022/07/28 04:04:59;;;;;;;5.72;2.60;;;13.60;49.80;;;;;;5050876;28;20416;-73
2022/07/28 04:07:25;;;;;;;8.30;2.60;;;13.70;49.90;;;;;;5032944;28;20406;-73
2022/07/28 04:09:50;;;;;;;8.30;2.77;;;13.40;52.50;;;;;;5050650;28;20457;-73
2022/07/28 04:12:16;;;;;;;5.70;2.20;;;13.60;52.40;;;;;;5050871;28;20385;-72
2022/07/28 04:14:41;;;;;;;6.75;2.78;;;13.70;50.40;;;;;;5050630;28;20384;-72
2022/07/28 04:17:07;;;;;;;5.80;2.80;;;13.80;49.90;;;;;;5050271;28;20468;-73
2022/07/28 04:19:33;;;;;;;8.38;2.90;;;13.70;50.10;;;;;;5050480;28;20393;-73
2022/07/28 04:21:58;;;;;;;8.82;2.65;;;13.80;50.20;;;;;;5050673;28;20385;-74
2022/07/28 04:24:24;;;;;;;6.53;2.50;;;13.80;50.20;;;;;;5050569;28;21095;-74
2022/07/28 04:26:50;;;;;;;6.83;2.60;;;13.80;49.80;;;;;;5050581;28;20437;-73
2022/07/28 04:29:15;;;;;;;3.60;2.20;;;13.90;49.20;;;;;;5034246;28;20981;-72
2022/07/28 04:31:41;;;;;;;12.57;2.70;;;14.00;48.80;;;;;;5054292;28;20447;-73
2022/07/28 04:34:07;;;;;;;9.90;2.77;;;14.00;47.90;;;;;;5058364;28;20400;-72
2022/07/28 04:36:36;;;;;;;4.90;2.50;;;14.00;48.00;;;;;;5024284;28;20385;-72
2022/07/28 04:39:02;;;;;;;13.67;6.27;;;14.00;47.90;;;;;;5054317;28;20465;-73
2022/07/28 04:41:27;;;;;;;4.85;3.00;;;14.10;47.50;;;;;;5036286;28;20535;-72
2022/07/28 04:43:53;;;;;;;15.15;2.90;;;14.20;46.60;;;;;;5054495;28;20442;-74
2022/07/28 04:46:18;;;;;;;6.60;2.83;;;14.30;46.50;;;;;;5054217;28;20398;-74
2022/07/28 04:48:44;;;;;;;7.40;2.50;;;14.20;46.40;;;;;;5054142;28;20384;-72
2022/07/28 04:51:10;;;;;;;10.50;3.80;;;14.30;46.50;;;;;;5054114;28;20380;-75
2022/07/28 04:53:35;;;;;;;9.50;2.60;;;14.30;46.70;;;;;;5054341;28;20910;-74
2022/07/28 04:56:01;;;;;;;11.60;2.92;;;14.10;49.10;;;;;;5056511;28;20373;-73
2022/07/28 04:58:27;;;;;;;9.02;3.20;;;14.00;50.60;;;;;;5056312;28;20385;-73
2022/07/28 05:00:52;;;;;;;5.13;3.00;;;14.00;50.40;;;;;;5058123;28;20381;-71
2022/07/28 05:03:19;;;;;;;9.35;3.25;;;14.00;50.90;;;;;;5060770;28;20469;-72
2022/07/28 05:05:45;;;;;;;9.02;3.22;;;14.00;50.30;;;;;;5058694;28;20447;-72
2022/07/28 05:08:10;;;;;;;10.00;3.00;;;14.20;49.40;;;;;;5058300;28;20402;-72
2022/07/28 05:10:36;;;;;;;7.23;2.80;;;14.60;45.70;;;;;;5054090;28;20439;-74
2022/07/28 05:13:06;;;;;;;13.10;3.00;;;14.60;46.40;;;;;;5053684;28;20407;-71
2022/07/28 05:15:32;;;;;;;8.97;2.80;;;14.50;47.00;;;;;;5053665;28;20446;-73
2022/07/28 05:17:58;;;;;;;10.90;2.97;;;14.50;47.30;;;;;;5053794;28;20420;-73
2022/07/28 05:20:23;;;;;;;6.63;2.83;;;14.80;44.80;;;;;;5053470;28;20435;-74
2022/07/28 05:22:49;;;;;;;9.50;3.23;;;15.10;42.60;;;;;;5053133;28;20481;-73
2022/07/28 05:25:23;;;;;;;5.80;2.50;;;15.30;41.00;;;;;;5053544;28;20389;-73
2022/07/28 05:27:50;;;;;;;6.73;2.60;;;15.40;40.60;;;;;;5053222;28;20513;-73
2022/07/28 05:30:16;;;;;;;11.40;3.08;;;15.50;39.70;;;;;;5053512;28;20708;-73
2022/07/28 05:32:44;;;;;;;8.97;2.53;;;15.60;39.20;;;;;;5034915;28;20804;-73
2022/07/28 05:35:10;;;;;;;7.25;3.70;;;15.70;38.40;;;;;;5053104;28;20431;-73
2022/07/28 05:37:36;;;;;;;6.85;2.85;;;15.60;39.40;;;;;;5053167;28;20389;-72
2022/07/28 05:40:07;;;;;;;9.27;3.13;;;15.70;39.20;;;;;;5052873;28;20479;-73
2022/07/28 05:42:34;;;;;;;6.83;2.90;;;15.90;38.10;;;;;;5052568;28;20499;-73
2022/07/28 05:45:02;;;;;;;9.00;2.83;;;16.00;36.80;;;;;;5053187;28;20472;-73
2022/07/28 05:47:28;;;;;;;6.22;2.55;;;16.20;36.30;;;;;;5052978;28;20439;-73
2022/07/28 05:49:58;;;;;;;11.17;3.00;;;16.20;35.80;;;;;;5053008;28;20381;-72
2022/07/28 05:52:25;;;;;;;9.27;3.00;;;16.40;35.50;;;;;;5053003;28;20695;-73
2022/07/28 05:54:51;;;;;;;8.43;2.80;;;16.50;34.60;;;;;;5052630;28;20400;-73
2022/07/28 05:57:16;;;;;;;6.40;2.40;;;16.60;33.70;;;;;;5053014;28;20381;-72
2022/07/28 05:59:43;;;;;;;6.80;2.78;;;16.70;33.80;;;;;;5052876;28;20961;-72
2022/07/28 06:02:09;;;;;;;13.90;3.35;;;16.90;32.70;;;;;;5052250;28;20742;-73
2022/07/28 06:04:35;;;;;;;8.20;2.55;;;17.10;32.60;;;;;;5052743;28;20385;-72
2022/07/28 06:07:01;;;;;;;6.85;2.50;;;17.20;32.60;;;;;;5052596;28;20463;-74
2022/07/28 06:09:26;;;;;;;8.73;2.95;;;17.50;30.20;;;;;;5052706;28;20458;-73
2022/07/28 06:11:52;;;;;;;9.30;2.90;;;17.80;29.00;;;;;;5052351;28;20420;-73
2022/07/28 06:14:18;;;;;;;8.23;2.53;;;18.00;28.30;;;;;;5052476;28;20385;-73
2022/07/28 06:16:43;;;;;;;8.27;3.10;;;18.10;27.60;;;;;;5052579;28;20400;-73
2022/07/28 06:19:09;;;;;;;5.33;2.60;;;18.20;27.20;;;;;;5051976;28;20413;-73
2022/07/28 06:21:35;;;;;;;9.82;2.78;;;18.20;26.50;;;;;;5051716;28;20882;-74
2022/07/28 06:24:01;;;;;;;8.02;2.50;;;18.30;26.90;;;;;;5052530;28;20434;-72
2022/07/28 06:26:26;;;;;;;6.00;2.63;;;18.30;26.60;;;;;;5052086;28;20508;-72
2022/07/28 06:28:52;;;;;;;6.93;2.20;;;18.30;26.60;;;;;;5052216;28;20385;-73
2022/07/28 06:31:17;;;;;;;7.33;2.50;;;18.60;26.80;;;;;;5051881;28;20389;-74
2022/07/28 06:33:43;;;;;;;8.40;2.73;;;18.80;25.30;;;;;;5052034;28;20720;-72
2022/07/28 06:36:09;;;;;;;7.53;2.50;;;18.90;24.90;;;;;;5052197;28;20468;-71
2022/07/28 06:38:34;;;;;;;5.95;2.50;;;18.90;24.20;;;;;;5051814;28;20735;-72
2022/07/28 06:41:00;;;;;;;9.80;2.27;;;18.60;24.70;;;;;;5051712;28;20421;-73
2022/07/28 06:43:26;;;;;;;7.57;2.50;;;18.50;25.90;;;;;;5033646;28;20381;-74
2022/07/28 06:45:51;;;;;;;12.43;2.50;;;18.50;25.90;;;;;;5052101;28;20384;-72
2022/07/28 06:48:18;;;;;;;5.47;2.50;;;18.60;25.20;;;;;;5051687;28;20719;-74
2022/07/28 06:50:44;;;;;;;8.93;2.60;;;18.70;25.30;;;;;;5036965;28;20396;-73
2022/07/28 06:53:10;;;;;;;12.10;2.40;;;18.70;25.80;;;;;;5040625;28;20424;-72
2022/07/28 06:55:36;;;;;;;8.95;2.30;;;18.80;25.50;;;;;;5043513;28;20411;-73
2022/07/28 06:58:05;;;;;;;5.57;2.10;;;18.90;24.00;;;;;;5046954;28;20487;-73
2022/07/28 07:00:31;;;;;;;5.25;2.00;;;19.00;23.60;;;;;;5047359;28;20390;-71
2022/07/28 07:02:56;;;;;;;5.00;2.40;;;18.80;24.10;;;;;;5044204;28;20396;-73
2022/07/28 07:05:22;;;;;;;5.95;2.38;;;18.70;24.60;;;;;;5053412;28;20421;-75
2022/07/28 07:07:47;;;;;;;6.68;2.70;;;18.70;24.50;;;;;;5052984;28;20405;-75
2022/07/28 07:10:13;;;;;;;12.23;2.40;;;18.70;25.10;;;;;;5055469;28;20486;-74
2022/07/28 07:12:39;;;;;;;9.67;4.53;;;18.80;24.90;;;;;;5042357;28;20403;-72
2022/07/28 07:15:06;;;;;;;10.10;2.70;;;18.80;25.60;;;;;;5053258;28;20381;-74
2022/07/28 07:17:31;;;;;;;10.20;2.58;;;19.00;25.00;;;;;;5046123;28;20395;-73
2022/07/28 07:19:57;;;;;;;13.95;5.93;;;19.30;23.70;;;;;;5036581;28;20906;-74
2022/07/28 07:22:23;;;;;;;14.73;5.20;;;19.60;23.30;;;;;;5047250;28;20651;-75
2022/07/28 07:24:48;;;;;;;16.10;4.90;;;19.80;22.00;;;;;;5047417;28;20382;-75
2022/07/28 07:27:14;;;;;;;7.23;2.70;;;19.90;21.10;;;;;;5031576;28;20403;-75
2022/07/28 07:29:40;;;;;;;8.80;2.43;;;19.80;21.00;;;;;;5041816;28;20398;-73
2022/07/28 07:32:06;;;;;;;10.63;2.63;;;19.90;21.50;;;;;;5039273;28;20751;-74
2022/07/28 07:34:31;;;;;;;7.40;2.20;;;19.90;22.00;;;;;;5044344;28;20742;-74
2022/07/28 07:36:57;;;;;;;9.67;2.30;;;19.90;20.50;;;;;;5050575;28;20803;-73
2022/07/28 07:39:22;;;;;;;8.27;3.10;;;19.80;20.30;;;;;;5050992;28;20390;-75
2022/07/28 07:41:48;;;;;;;4.20;2.10;;;19.80;20.90;;;;;;5050554;28;20716;-73
2022/07/28 07:44:13;;;;;;;5.60;2.20;;;19.80;20.80;;;;;;5049826;28;20766;-74
2022/07/28 07:46:39;;;;;;;8.37;2.47;;;19.90;20.90;;;;;;5050398;28;20405;-77
2022/07/28 07:49:05;;;;;;;8.05;2.63;;;19.90;20.70;;;;;;5050882;28;20874;-74
2022/07/28 07:51:31;;;;;;;9.52;2.63;;;20.10;20.70;;;;;;5033085;28;20870;-74
2022/07/28 07:53:57;;;;;;;5.95;2.30;;;20.20;20.00;;;;;;5048836;22;20867;-72
2022/07/28 07:56:25;;;;;;;9.25;2.60;;;20.20;19.80;;;;;;5011197;28;20469;-70
2022/07/28 07:58:52;;;;;;;9.93;2.40;;;20.20;19.70;;;;;;5011602;28;20416;-72
2022/07/28 08:01:17;;;;;;;7.18;2.50;;;20.10;20.20;;;;;;5011351;28;20460;-71
2022/07/28 08:03:43;;;;;;;12.38;2.65;;;20.00;19.90;;;;;;4986816;28;20422;-71
2022/07/28 08:06:09;;;;;;;7.88;2.60;;;19.90;20.40;;;;;;4997247;28;20393;-73
2022/07/28 08:08:35;;;;;;;7.30;2.15;;;19.90;21.00;;;;;;4998579;28;20387;-73
2022/07/28 08:11:00;;;;;;;8.70;2.50;;;20.10;20.30;;;;;;4997877;28;20803;-73
2022/07/28 08:13:26;;;;;;;9.37;2.57;;;20.20;20.00;;;;;;4995774;28;20472;-73
2022/07/28 08:15:51;;;;;;;6.55;2.40;;;20.20;20.00;;;;;;4994557;28;20410;-72
2022/07/28 08:18:17;;;;;;;8.70;2.30;;;20.00;19.30;;;;;;4995658;28;20393;-72
2022/07/28 08:20:42;;;;;;;6.80;2.60;;;19.90;20.00;;;;;;4996291;28;20394;-72
2022/07/28 08:23:08;;;;;;;7.88;3.00;;;20.10;20.70;;;;;;4996036;28;20536;-73
2022/07/28 08:25:36;;;;;;;7.77;3.10;;;20.10;19.80;;;;;;4995640;28;20386;-72
2022/07/28 08:28:01;;;;;;;7.33;2.47;;;20.20;20.00;;;;;;4995795;28;20432;-73
2022/07/28 08:30:27;;;;;;;9.83;2.27;;;20.40;18.70;;;;;;4978705;28;20402;-71
2022/07/28 08:32:53;;;;;;;5.15;2.00;;;20.40;18.80;;;;;;4996017;28;20394;-73
2022/07/28 08:35:18;;;;;;;8.77;2.30;;;20.50;18.70;;;;;;4995578;28;20475;-73
2022/07/28 08:37:44;;;;;;;8.80;2.70;;;20.40;18.70;;;;;;4995761;28;20489;-72
2022/07/28 08:40:15;;;;;;;7.85;2.33;;;20.50;18.40;;;;;;4995209;28;20448;-70
2022/07/28 08:42:46;;;;;;;6.53;2.20;;;20.60;18.10;;;;;;4995280;28;20395;-72
2022/07/28 08:45:13;;;;;;;3.15;2.08;;;20.60;17.50;;;;;;4995876;28;20732;-72
2022/07/28 08:47:41;;;;;;;6.15;2.40;;;20.60;17.90;;;;;;4995574;28;20406;-73
2022/07/28 08:50:09;;;;;;;8.07;2.40;;;20.80;17.80;;;;;;4995458;28;20411;-70
2022/07/28 08:52:37;;;;;;;8.00;2.72;;;20.90;16.80;;;;;;4995001;28;20451;-72
2022/07/28 08:55:05;;;;;;;7.18;2.20;;;21.00;17.20;;;;;;4995111;28;20921;-72
2022/07/28 08:57:34;;;;;;;7.65;2.60;;;21.10;16.80;;;;;;4995055;28;20470;-74
2022/07/28 09:00:00;;;;;;;4.78;2.33;;;21.20;17.00;;;;;;4995053;28;20406;-73
2022/07/28 09:02:27;;;;;;;6.40;2.00;;;21.20;16.20;;;;;;5002062;28;20403;-72
2022/07/28 09:04:58;;;;;;;6.57;2.10;;;21.30;16.20;;;;;;4978253;28;20541;-76
2022/07/28 09:07:25;;;;;;;8.15;2.60;;;21.40;15.50;;;;;;4995773;28;20480;-72
2022/07/28 09:09:51;;;;;;;7.10;2.05;;;21.40;15.60;;;;;;4994434;28;20871;-72
2022/07/28 09:12:16;;;;;;;4.85;2.10;;;21.40;15.40;;;;;;4994679;28;20395;-72
2022/07/28 09:14:42;;;;;;;7.78;1.90;;;21.40;15.40;;;;;;4994730;28;20938;-72
2022/07/28 09:17:07;;;;;;;5.00;1.90;;;21.40;15.10;;;;;;4993977;28;20485;-74
2022/07/28 09:19:33;;;;;;;7.50;2.50;;;21.40;15.70;;;;;;4994775;28;20390;-73
2022/07/28 09:21:59;;;;;;;7.50;2.20;;;21.40;16.30;;;;;;4994633;28;20939;-73
2022/07/28 09:24:34;;;;;;;9.15;2.45;;;21.60;15.60;;;;;;4994462;28;20387;-72
2022/07/28 09:27:02;;;;;;;5.18;2.20;;;21.60;14.60;;;;;;4994582;28;20498;-72
2022/07/28 09:29:28;;;;;;;7.20;2.45;;;21.60;15.30;;;;;;4994367;28;20391;-72
2022/07/28 09:31:54;;;;;;;6.30;1.70;;;21.60;14.70;;;;;;4994374;28;20822;-71
2022/07/28 09:34:20;;;;;;;7.88;2.40;;;21.70;14.30;;;;;;4977264;28;20411;-74
2022/07/28 09:36:46;;;;;;;10.48;2.60;;;21.60;14.10;;;;;;4994198;28;20390;-72
2022/07/28 09:39:30;;;;;;;6.43;2.30;;;21.50;14.10;;;;;;4994319;28;20453;-70
2022/07/28 09:41:56;;;;;;;7.15;2.20;;;21.50;13.90;;;;;;4995583;28;20545;-71
2022/07/28 09:44:23;;;;;;;13.37;2.73;;;21.60;14.30;;;;;;4996596;28;20399;-74
2022/07/28 09:46:49;;;;;;;7.72;2.50;;;21.80;14.60;;;;;;4996030;28;20417;-73
2022/07/28 09:49:15;;;;;;;10.90;2.50;;;21.90;14.00;;;;;;4994847;28;20391;-75
2022/07/28 09:51:41;;;;;;;7.37;2.20;;;22.00;13.70;;;;;;4983506;28;20402;-75
2022/07/28 09:54:12;;;;;;;10.38;2.40;;;22.10;13.80;;;;;;5007485;28;20416;-72
2022/07/28 09:56:40;;;;;;;5.15;2.00;;;22.20;13.70;;;;;;5011169;28;20458;-72
2022/07/28 09:59:06;;;;;;;5.90;2.10;;;22.20;13.20;;;;;;5009711;28;20410;-71
2022/07/28 10:01:32;;;;;;;4.95;1.83;;;22.20;13.20;;;;;;5005069;28;20395;-71
2022/07/28 10:04:00;;;;;;;4.97;2.00;;;22.40;12.50;;;;;;4981550;28;20464;-71
2022/07/28 10:06:33;;;;;;;5.75;1.88;;;22.40;12.40;;;;;;4994049;28;20430;-71
2022/07/28 10:09:03;;;;;;;6.63;2.28;;;22.30;12.10;;;;;;4984733;28;20389;-72
2022/07/28 10:11:29;;;;;;;4.88;1.70;;;22.30;12.70;;;;;;5006572;28;20408;-72
2022/07/28 10:14:03;;;;;;;8.68;2.58;;;22.40;11.50;;;;;;5004969;28;20399;-71
2022/07/28 10:16:33;;;;;;;4.95;1.52;;;22.40;10.80;;;;;;4993104;28;20409;-72
2022/07/28 10:19:00;;;;;;;4.00;1.60;;;22.30;10.60;;;;;;5006722;28;20404;-71
2022/07/28 10:21:28;;;;;;;4.28;2.05;;;22.30;10.80;;;;;;5007379;28;20870;-70
2022/07/28 10:24:04;;;;;;;5.97;2.60;;;22.30;11.40;;;;;;4995639;28;20788;-72
2022/07/28 10:26:31;;;;;;;7.70;2.53;;;22.60;12.40;;;;;;5012807;28;20409;-69
2022/07/28 10:29:08;;;;;;;5.57;1.80;;;22.90;11.40;;;;;;4993586;28;20402;-72
2022/07/28 10:31:54;;;;;;;5.20;2.13;;;23.20;9.30;;;;;;4993128;28;20382;-71
2022/07/28 10:34:22;;;;;;;4.50;1.70;;;23.20;9.50;;;;;;4987352;28;20392;-73
2022/07/28 10:36:55;;;;;;;5.65;2.25;;;23.30;9.90;;;;;;4973855;28;20778;-71
2022/07/28 10:39:24;;;;;;;4.65;2.17;;;23.30;9.90;;;;;;4973533;28;20400;-71
2022/07/28 10:41:50;;;;;;;3.50;2.00;;;23.50;10.00;;;;;;4999960;28;20401;-72
2022/07/28 10:44:18;;;;;;;7.35;2.30;;;23.70;9.40;;;;;;5012628;28;20427;-73
2022/07/28 10:46:45;;;;;;;5.95;2.38;;;23.80;9.60;;;;;;5005796;28;20498;-72
2022/07/28 10:49:13;;;;;;;7.88;2.40;;;23.90;9.90;;;;;;4990541;28;20398;-69
2022/07/28 10:51:41;;;;;;;6.57;2.22;;;24.00;8.70;;;;;;4990669;28;20402;-71
2022/07/28 10:54:13;;;;;;;6.65;2.33;;;23.90;8.70;;;;;;4972775;28;20418;-72
2022/07/28 10:56:52;;;;;;;14.50;2.67;;;23.80;9.00;;;;;;4990043;28;20407;-70
2022/07/28 10:59:33;;;;;;;7.65;2.20;;;23.80;8.40;;;;;;5008080;28;20420;-72
2022/07/28 11:01:58;;;;;;;4.20;1.70;;;23.60;9.90;;;;;;5004516;28;20831;-71
2022/07/28 11:04:43;;;;;;;5.95;1.80;;;23.60;9.50;;;;;;4992399;28;20481;-72
2022/07/28 11:07:10;;;;;;;4.78;1.83;;;23.70;9.20;;;;;;4995061;28;20942;-72
2022/07/28 11:09:36;;;;;;;4.88;1.83;;;23.70;9.10;;;;;;4995802;28;20409;-73
2022/07/28 11:12:02;;;;;;;3.80;1.97;;;23.60;9.40;;;;;;4992403;28;20583;-72
2022/07/28 11:14:35;;;;;;;3.93;2.10;;;23.70;8.60;;;;;;5003880;28;20463;-71
2022/07/28 11:17:03;;;;;;;4.75;2.10;;;23.70;8.80;;;;;;5001232;28;20402;-72
2022/07/28 11:19:44;;;;;;;4.40;1.85;;;23.80;9.80;;;;;;4990265;28;20422;-71
2022/07/28 11:25:00;;;;;;;5.75;2.05;;;24.10;9.10;;;;;;5007230;28;20912;-71
2022/07/28 11:27:41;;;;;;;6.00;1.70;;;24.30;9.30;;;;;;4990139;28;20418;-69
2022/07/28 11:30:08;;;;;;;3.10;1.70;;;24.30;8.50;;;;;;4972389;28;20398;-71
2022/07/28 11:32:49;;;;;;;6.18;2.20;;;24.40;8.30;;;;;;4990042;28;20394;-72
2022/07/28 11:35:16;;;;;;;5.25;1.75;;;24.40;8.20;;;;;;4998239;28;20396;-71
2022/07/28 11:38:00;;;;;;;12.40;6.05;;;24.40;8.00;;;;;;5009132;28;20416;-72
2022/07/28 11:40:39;;;;;;;4.57;1.98;;;24.30;8.40;;;;;;5009354;28;20384;-71
2022/07/28 11:43:22;;;;;;;6.53;2.10;;;24.50;9.10;;;;;;5009006;28;20404;-71
2022/07/28 11:46:14;;;;;;;8.90;2.40;;;24.80;8.20;;;;;;5009390;28;20745;-73
2022/07/28 11:48:42;;;;;;;7.40;2.30;;;25.10;7.50;;;;;;4996071;28;20421;-70
2022/07/28 11:51:09;;;;;;;6.95;2.40;;;25.30;7.10;;;;;;4987732;28;20398;-73
2022/07/28 11:53:51;;;;;;;3.60;1.80;;;25.50;6.90;;;;;;4989381;28;20496;-71
2022/07/28 11:56:30;;;;;;;5.90;2.07;;;25.60;6.50;;;;;;4971843;28;20405;-71
2022/07/28 11:59:01;;;;;;;4.53;1.80;;;25.70;6.00;;;;;;4985300;28;20407;-72
2022/07/28 12:01:26;;;;;;;2.65;1.98;;;25.70;6.40;;;;;;4989183;28;20379;-71
2022/07/28 12:03:54;;;;;;;5.97;2.70;;;25.60;6.20;;;;;;4988824;28;20413;-71
2022/07/28 12:06:21;;;;;;;6.30;2.30;;;25.60;6.60;;;;;;4985965;28;20469;-73
2022/07/28 12:08:57;;;;;;;7.07;1.90;;;25.80;6.30;;;;;;4991719;28;20397;-71
2022/07/28 12:11:30;;;;;;;4.82;1.80;;;26.30;5.80;;;;;;4991285;28;20386;-73
2022/07/28 12:14:05;;;;;;;4.50;1.65;;;25.90;5.40;;;;;;4991321;28;20440;-73
2022/07/28 12:16:33;;;;;;;5.00;1.83;;;25.80;5.70;;;;;;4988433;28;20421;-72
2022/07/28 12:19:01;;;;;;;6.57;2.13;;;25.70;6.00;;;;;;4991464;28;20398;-71
2022/07/28 12:21:45;;;;;;;6.20;2.20;;;26.00;6.40;;;;;;4990753;28;20399;-71
2022/07/28 12:24:14;;;;;;;5.25;1.70;;;26.60;6.30;;;;;;4991328;28;20820;-72
2022/07/28 12:26:41;;;;;;;4.15;2.03;;;26.60;4.40;;;;;;4972553;28;20462;-72
2022/07/28 12:29:11;;;;;;;3.50;2.00;;;26.30;5.60;;;;;;4990365;28;20497;-70
2022/07/28 12:31:37;;;;;;;4.90;1.80;;;26.60;4.70;;;;;;4990902;28;20409;-73
2022/07/28 12:34:05;;;;;;;4.38;2.00;;;26.60;4.90;;;;;;4990981;28;20972;-71
2022/07/28 12:36:32;;;;;;;6.30;1.80;;;26.80;5.50;;;;;;4989266;28;20398;-72
2022/07/28 12:39:00;;;;;;;3.35;1.70;;;26.60;5.00;;;;;;4990797;28;20486;-72
2022/07/28 12:41:37;;;;;;;5.05;2.50;;;26.90;4.90;;;;;;4990432;28;20389;-72
2022/07/28 12:44:04;;;;;;;5.60;2.70;;;27.20;5.60;;;;;;4972954;28;20405;-72
2022/07/28 12:46:31;;;;;;;5.30;2.40;;;27.40;4.90;;;;;;4990707;28;20386;-72
2022/07/28 12:48:58;;;;;;;10.15;2.55;;;27.40;4.10;;;;;;4973233;28;20409;-71
2022/07/28 12:51:35;;;;;;;5.78;2.05;;;27.20;4.30;;;;;;4993234;28;20402;-71
2022/07/28 12:54:02;;;;;;;8.30;2.50;;;27.20;4.90;;;;;;4994359;28;20395;-72
2022/07/28 12:56:28;;;;;;;4.65;1.95;;;27.30;4.50;;;;;;4994128;28;20410;-73
2022/07/28 12:59:30;;;;;;;7.22;1.70;;;27.40;3.80;;;;;;4994449;28;20386;-72
2022/07/28 13:01:57;;;;;;;5.97;2.00;;;27.20;3.70;;;;;;4983534;28;20406;-71